sensor_id;sensor_type;location;lat;lon;timestamp;pressure;altitude;pressure_sealevel;temperature;humidity
49611;BME280;35515;48.766;9.176;2023-06-01T00:01:39;98477.69;;;17.35;50.01
49611;BME280;35515;48.766;9.176;2023-06-01T00:04:07;98484.25;;;17.34;50.88
49611;BME280;35515;48.766;9.176;2023-06-01T00:06:34;98477.97;;;17.33;49.75
49611;BME280;35515;48.766;9.176;2023-06-01T00:09:01;98480.78;;;17.21;50.36
49611;BME280;35515;48.766;9.176;2023-06-01T00:11:29;98478.81;;;17.17;50.13
49611;BME280;35515;48.766;9.176;2023-06-01T00:13:56;98475.63;;;17.08;50.51
49611;BME280;35515;48.766;9.176;2023-06-01T00:16:23;98480.28;;;17.08;50.60
49611;BME280;35515;48.766;9.176;2023-06-01T00:18:49;98481.03;;;17.03;51.17
49611;BME280;35515;48.766;9.176;2023-06-01T00:21:18;98482.09;;;17.02;50.43
49611;BME280;35515;48.766;9.176;2023-06-01T00:23:45;98482.03;;;16.97;50.92
49611;BME280;35515;48.766;9.176;2023-06-01T00:26:11;98486.81;;;16.90;50.54
49611;BME280;35515;48.766;9.176;2023-06-01T00:28:39;98491.22;;;16.91;50.87
49611;BME280;35515;48.766;9.176;2023-06-01T00:31:05;98483.56;;;16.93;50.87
49611;BME280;35515;48.766;9.176;2023-06-01T00:33:32;98483.69;;;16.86;51.18
49611;BME280;35515;48.766;9.176;2023-06-01T00:35:59;98479.50;;;16.95;50.97
49611;BME280;35515;48.766;9.176;2023-06-01T00:38:25;98482.50;;;16.94;50.99
49611;BME280;35515;48.766;9.176;2023-06-01T00:40:52;98485.13;;;16.88;51.50
49611;BME280;35515;48.766;9.176;2023-06-01T00:43:18;98476.25;;;16.81;51.67
49611;BME280;35515;48.766;9.176;2023-06-01T00:45:46;98486.69;;;16.84;52.14
49611;BME280;35515;48.766;9.176;2023-06-01T00:48:14;98485.69;;;16.74;51.63
49611;BME280;35515;48.766;9.176;2023-06-01T00:50:41;98480.25;;;16.62;52.11
49611;BME280;35515;48.766;9.176;2023-06-01T00:53:14;98479.19;;;16.63;52.22
49611;BME280;35515;48.766;9.176;2023-06-01T00:55:42;98482.75;;;16.63;52.16
49611;BME280;35515;48.766;9.176;2023-06-01T00:58:08;98489.06;;;16.64;52.29
49611;BME280;35515;48.766;9.176;2023-06-01T01:00:35;98483.25;;;16.60;51.89
49611;BME280;35515;48.766;9.176;2023-06-01T01:03:04;98474.22;;;16.60;52.06
49611;BME280;35515;48.766;9.176;2023-06-01T01:05:33;98477.06;;;16.65;51.75
49611;BME280;35515;48.766;9.176;2023-06-01T01:08:07;98475.88;;;16.61;52.20
49611;BME280;35515;48.766;9.176;2023-06-01T01:10:39;98479.69;;;16.60;52.06
49611;BME280;35515;48.766;9.176;2023-06-01T01:13:10;98472.44;;;16.53;52.57
49611;BME280;35515;48.766;9.176;2023-06-01T01:15:45;98469.38;;;16.50;52.64
49611;BME280;35515;48.766;9.176;2023-06-01T01:18:22;98475.25;;;16.42;52.82
49611;BME280;35515;48.766;9.176;2023-06-01T01:20:52;98471.69;;;16.41;52.60
49611;BME280;35515;48.766;9.176;2023-06-01T01:23:38;98479.88;;;16.41;52.76
49611;BME280;35515;48.766;9.176;2023-06-01T01:26:24;98472.84;;;16.45;52.60
49611;BME280;35515;48.766;9.176;2023-06-01T01:29:00;98472.28;;;16.31;52.72
49611;BME280;35515;48.766;9.176;2023-06-01T01:31:28;98479.72;;;16.19;52.96
49611;BME280;35515;48.766;9.176;2023-06-01T01:33:57;98479.97;;;16.17;53.16
49611;BME280;35515;48.766;9.176;2023-06-01T01:36:25;98474.03;;;16.09;53.29
49611;BME280;35515;48.766;9.176;2023-06-01T01:38:52;98475.56;;;16.16;53.52
49611;BME280;35515;48.766;9.176;2023-06-01T01:41:19;98469.03;;;16.17;53.39
49611;BME280;35515;48.766;9.176;2023-06-01T01:43:47;98466.53;;;16.16;53.55
49611;BME280;35515;48.766;9.176;2023-06-01T01:46:21;98472.97;;;16.10;54.25
49611;BME280;35515;48.766;9.176;2023-06-01T01:48:54;98468.25;;;16.05;54.29
49611;BME280;35515;48.766;9.176;2023-06-01T01:51:25;98471.09;;;16.10;53.67
49611;BME280;35515;48.766;9.176;2023-06-01T01:53:54;98460.50;;;16.02;53.98
49611;BME280;35515;48.766;9.176;2023-06-01T01:56:22;98460.75;;;16.00;53.59
49611;BME280;35515;48.766;9.176;2023-06-01T01:58:51;98459.34;;;15.86;54.03
49611;BME280;35515;48.766;9.176;2023-06-01T02:01:20;98461.00;;;15.75;54.75
49611;BME280;35515;48.766;9.176;2023-06-01T02:03:57;98461.59;;;15.77;54.59
49611;BME280;35515;48.766;9.176;2023-06-01T02:06:24;98456.03;;;15.72;54.55
49611;BME280;35515;48.766;9.176;2023-06-01T02:08:50;98457.56;;;15.80;54.23
49611;BME280;35515;48.766;9.176;2023-06-01T02:11:17;98450.22;;;15.80;53.91
49611;BME280;35515;48.766;9.176;2023-06-01T02:13:43;98456.28;;;15.70;54.29
49611;BME280;35515;48.766;9.176;2023-06-01T02:16:10;98449.84;;;15.77;55.00
49611;BME280;35515;48.766;9.176;2023-06-01T02:18:38;98444.03;;;15.73;54.50
49611;BME280;35515;48.766;9.176;2023-06-01T02:21:07;98447.97;;;15.65;55.12
49611;BME280;35515;48.766;9.176;2023-06-01T02:23:34;98449.75;;;15.60;55.17
49611;BME280;35515;48.766;9.176;2023-06-01T02:26:00;98449.28;;;15.63;54.81
49611;BME280;35515;48.766;9.176;2023-06-01T02:28:27;98448.44;;;15.62;54.78
49611;BME280;35515;48.766;9.176;2023-06-01T02:30:53;98449.88;;;15.53;55.53
49611;BME280;35515;48.766;9.176;2023-06-01T02:33:21;98456.53;;;15.45;55.50
49611;BME280;35515;48.766;9.176;2023-06-01T02:35:51;98452.94;;;15.45;55.60
49611;BME280;35515;48.766;9.176;2023-06-01T02:38:18;98454.38;;;15.47;55.84
49611;BME280;35515;48.766;9.176;2023-06-01T02:40:44;98455.94;;;15.43;55.87
49611;BME280;35515;48.766;9.176;2023-06-01T02:43:11;98447.84;;;15.48;55.82
49611;BME280;35515;48.766;9.176;2023-06-01T02:45:37;98455.47;;;15.46;55.91
49611;BME280;35515;48.766;9.176;2023-06-01T02:48:05;98445.97;;;15.37;56.15
49611;BME280;35515;48.766;9.176;2023-06-01T02:50:31;98446.78;;;15.37;56.05
49611;BME280;35515;48.766;9.176;2023-06-01T02:52:59;98447.16;;;15.29;56.74
49611;BME280;35515;48.766;9.176;2023-06-01T02:55:26;98448.22;;;15.16;57.02
49611;BME280;35515;48.766;9.176;2023-06-01T02:57:53;98449.88;;;15.29;56.26
49611;BME280;35515;48.766;9.176;2023-06-01T03:00:19;98454.53;;;15.29;56.89
49611;BME280;35515;48.766;9.176;2023-06-01T03:02:47;98447.97;;;15.18;56.87
49611;BME280;35515;48.766;9.176;2023-06-01T03:05:14;98453.44;;;15.18;56.63
49611;BME280;35515;48.766;9.176;2023-06-01T03:07:43;98450.50;;;15.19;56.53
49611;BME280;35515;48.766;9.176;2023-06-01T03:10:11;98452.47;;;15.12;57.01
49611;BME280;35515;48.766;9.176;2023-06-01T03:12:38;98454.59;;;15.22;56.47
49611;BME280;35515;48.766;9.176;2023-06-01T03:15:05;98457.81;;;15.19;56.89
49611;BME280;35515;48.766;9.176;2023-06-01T03:17:32;98454.03;;;15.20;56.66
49611;BME280;35515;48.766;9.176;2023-06-01T03:19:59;98459.00;;;15.11;57.11
49611;BME280;35515;48.766;9.176;2023-06-01T03:22:25;98460.19;;;15.03;57.10
49611;BME280;35515;48.766;9.176;2023-06-01T03:24:52;98454.38;;;15.00;57.50
49611;BME280;35515;48.766;9.176;2023-06-01T03:27:21;98459.81;;;14.88;58.70
49611;BME280;35515;48.766;9.176;2023-06-01T03:29:47;98460.88;;;14.99;57.40
49611;BME280;35515;48.766;9.176;2023-06-01T03:32:14;98466.59;;;14.97;57.81
49611;BME280;35515;48.766;9.176;2023-06-01T03:34:40;98464.66;;;14.98;57.36
49611;BME280;35515;48.766;9.176;2023-06-01T03:37:07;98470.97;;;14.98;57.28
49611;BME280;35515;48.766;9.176;2023-06-01T03:39:34;98471.22;;;14.97;57.42
49611;BME280;35515;48.766;9.176;2023-06-01T03:42:01;98462.91;;;14.92;57.61
49611;BME280;35515;48.766;9.176;2023-06-01T03:44:29;98465.38;;;14.81;58.04
49611;BME280;35515;48.766;9.176;2023-06-01T03:46:56;98472.50;;;14.82;58.15
49611;BME280;35515;48.766;9.176;2023-06-01T03:49:22;98471.91;;;14.92;57.46
49611;BME280;35515;48.766;9.176;2023-06-01T03:51:49;98474.88;;;14.91;57.66
49611;BME280;35515;48.766;9.176;2023-06-01T03:54:16;98472.28;;;14.96;57.44
49611;BME280;35515;48.766;9.176;2023-06-01T03:56:42;98481.16;;;14.91;58.38
49611;BME280;35515;48.766;9.176;2023-06-01T03:59:09;98474.88;;;14.91;58.19
49611;BME280;35515;48.766;9.176;2023-06-01T04:01:37;98479.56;;;14.83;58.41
49611;BME280;35515;48.766;9.176;2023-06-01T04:04:04;98479.56;;;14.83;58.41
49611;BME280;35515;48.766;9.176;2023-06-01T04:06:31;98468.91;;;14.82;58.57
49611;BME280;35515;48.766;9.176;2023-06-01T04:09:00;98480.81;;;14.87;58.17
49611;BME280;35515;48.766;9.176;2023-06-01T04:11:31;98484.56;;;14.75;58.63
49611;BME280;35515;48.766;9.176;2023-06-01T04:13:58;98490.91;;;14.68;58.57
49611;BME280;35515;48.766;9.176;2023-06-01T04:16:25;98488.06;;;14.63;59.22
49611;BME280;35515;48.766;9.176;2023-06-01T04:18:53;98482.31;;;14.71;59.02
49611;BME280;35515;48.766;9.176;2023-06-01T04:21:20;98484.78;;;14.73;58.26
49611;BME280;35515;48.766;9.176;2023-06-01T04:23:47;98483.59;;;14.69;58.59
49611;BME280;35515;48.766;9.176;2023-06-01T04:26:14;98490.59;;;14.77;58.17
49611;BME280;35515;48.766;9.176;2023-06-01T04:28:41;98480.16;;;14.74;58.50
49611;BME280;35515;48.766;9.176;2023-06-01T04:31:09;98483.41;;;14.82;58.08
49611;BME280;35515;48.766;9.176;2023-06-01T04:33:42;98488.38;;;14.85;58.18
49611;BME280;35515;48.766;9.176;2023-06-01T04:36:11;98487.56;;;14.85;58.37
49611;BME280;35515;48.766;9.176;2023-06-01T04:38:40;98487.56;;;14.85;58.57
49611;BME280;35515;48.766;9.176;2023-06-01T04:41:07;98490.03;;;14.86;58.71
49611;BME280;35515;48.766;9.176;2023-06-01T04:43:35;98492.03;;;14.79;59.17
49611;BME280;35515;48.766;9.176;2023-06-01T04:46:04;98487.41;;;14.80;59.64
49611;BME280;35515;48.766;9.176;2023-06-01T04:48:31;98481.72;;;14.81;59.45
49611;BME280;35515;48.766;9.176;2023-06-01T04:50:57;98483.41;;;14.82;59.30
49611;BME280;35515;48.766;9.176;2023-06-01T04:53:26;98486.69;;;14.84;59.72
49611;BME280;35515;48.766;9.176;2023-06-01T04:55:53;98487.22;;;14.93;58.76
49611;BME280;35515;48.766;9.176;2023-06-01T04:58:21;98495.78;;;14.97;58.86
49611;BME280;35515;48.766;9.176;2023-06-01T05:00:48;98489.94;;;14.93;59.25
49611;BME280;35515;48.766;9.176;2023-06-01T05:03:14;98492.44;;;14.95;59.98
49611;BME280;35515;48.766;9.176;2023-06-01T05:05:41;98491.50;;;15.01;59.06
49611;BME280;35515;48.766;9.176;2023-06-01T05:08:07;98491.03;;;15.04;58.91
49611;BME280;35515;48.766;9.176;2023-06-01T05:10:35;98493.41;;;15.12;58.84
49611;BME280;35515;48.766;9.176;2023-06-01T05:13:02;98489.38;;;15.15;59.01
49611;BME280;35515;48.766;9.176;2023-06-01T05:15:28;98495.06;;;15.13;59.86
49611;BME280;35515;48.766;9.176;2023-06-01T05:17:55;98502.34;;;15.19;59.12
49611;BME280;35515;48.766;9.176;2023-06-01T05:20:22;98498.06;;;15.24;59.04
49611;BME280;35515;48.766;9.176;2023-06-01T05:22:49;98500.31;;;15.27;58.86
49611;BME280;35515;48.766;9.176;2023-06-01T05:25:15;98494.75;;;15.33;59.08
49611;BME280;35515;48.766;9.176;2023-06-01T05:27:43;98497.34;;;15.40;58.73
49611;BME280;35515;48.766;9.176;2023-06-01T05:30:11;98493.91;;;15.45;59.00
49611;BME280;35515;48.766;9.176;2023-06-01T05:32:38;98493.22;;;15.49;58.71
49611;BME280;35515;48.766;9.176;2023-06-01T05:35:05;98495.69;;;15.51;59.01
49611;BME280;35515;48.766;9.176;2023-06-01T05:37:32;98495.69;;;15.63;57.29
49611;BME280;35515;48.766;9.176;2023-06-01T05:39:58;98490.84;;;15.65;57.86
49611;BME280;35515;48.766;9.176;2023-06-01T05:42:25;98490.34;;;15.68;57.61
49611;BME280;35515;48.766;9.176;2023-06-01T05:44:53;98485.59;;;15.75;57.15
49611;BME280;35515;48.766;9.176;2023-06-01T05:47:19;98480.88;;;15.82;56.64
49611;BME280;35515;48.766;9.176;2023-06-01T05:49:46;98483.22;;;15.91;55.14
49611;BME280;35515;48.766;9.176;2023-06-01T05:52:12;98492.59;;;15.95;54.95
49611;BME280;35515;48.766;9.176;2023-06-01T05:54:39;98495.44;;;16.00;54.50
49611;BME280;35515;48.766;9.176;2023-06-01T05:57:06;98493.25;;;16.14;53.81
49611;BME280;35515;48.766;9.176;2023-06-01T05:59:32;98485.31;;;16.12;53.15
49611;BME280;35515;48.766;9.176;2023-06-01T06:02:00;98501.44;;;16.26;52.69
49611;BME280;35515;48.766;9.176;2023-06-01T06:04:27;98487.88;;;16.31;52.33
49611;BME280;35515;48.766;9.176;2023-06-01T06:06:53;98489.66;;;16.37;52.39
49611;BME280;35515;48.766;9.176;2023-06-01T06:09:20;98493.56;;;16.41;52.28
49611;BME280;35515;48.766;9.176;2023-06-01T06:11:47;98502.94;;;16.45;52.88
49611;BME280;35515;48.766;9.176;2023-06-01T06:14:13;98494.22;;;16.48;52.66
49611;BME280;35515;48.766;9.176;2023-06-01T06:16:40;98496.56;;;16.57;52.36
49611;BME280;35515;48.766;9.176;2023-06-01T06:19:09;98501.06;;;16.63;52.46
49611;BME280;35515;48.766;9.176;2023-06-01T06:21:37;98498.44;;;16.68;52.01
49611;BME280;35515;48.766;9.176;2023-06-01T06:24:03;98498.44;;;16.68;52.23
49611;BME280;35515;48.766;9.176;2023-06-01T06:26:30;98495.19;;;16.71;52.83
49611;BME280;35515;48.766;9.176;2023-06-01T06:28:57;98496.38;;;16.75;52.31
49611;BME280;35515;48.766;9.176;2023-06-01T06:31:23;98496.22;;;16.82;51.32
49611;BME280;35515;48.766;9.176;2023-06-01T06:33:50;98494.91;;;16.84;51.40
49611;BME280;35515;48.766;9.176;2023-06-01T06:36:18;98488.84;;;16.82;51.38
49611;BME280;35515;48.766;9.176;2023-06-01T06:38:45;98490.53;;;16.83;51.70
49611;BME280;35515;48.766;9.176;2023-06-01T06:41:11;98494.41;;;16.87;50.88
49611;BME280;35515;48.766;9.176;2023-06-01T06:43:38;98496.53;;;16.97;50.56
49611;BME280;35515;48.766;9.176;2023-06-01T06:46:05;98494.28;;;17.11;49.79
49611;BME280;35515;48.766;9.176;2023-06-01T06:48:31;98492.06;;;17.08;50.07
49611;BME280;35515;48.766;9.176;2023-06-01T06:50:58;98497.72;;;17.18;50.10
49611;BME280;35515;48.766;9.176;2023-06-01T06:53:26;98497.53;;;17.25;50.13
49611;BME280;35515;48.766;9.176;2023-06-01T06:55:52;98495.06;;;17.24;49.92
49611;BME280;35515;48.766;9.176;2023-06-01T06:58:19;98501.09;;;17.26;49.18
49611;BME280;35515;48.766;9.176;2023-06-01T07:00:45;98496.69;;;17.25;49.65
49611;BME280;35515;48.766;9.176;2023-06-01T07:03:12;98502.00;;;17.31;50.22
49611;BME280;35515;48.766;9.176;2023-06-01T07:05:38;98501.63;;;17.23;50.04
49611;BME280;35515;48.766;9.176;2023-06-01T07:08:05;98501.63;;;17.23;50.23
49611;BME280;35515;48.766;9.176;2023-06-01T07:10:33;98495.72;;;17.31;50.58
49611;BME280;35515;48.766;9.176;2023-06-01T07:13:00;98504.19;;;17.46;50.13
49611;BME280;35515;48.766;9.176;2023-06-01T07:15:26;98501.09;;;17.43;50.44
49611;BME280;35515;48.766;9.176;2023-06-01T07:17:53;98494.22;;;17.40;50.90
49611;BME280;35515;48.766;9.176;2023-06-01T07:20:19;98498.38;;;17.43;50.33
49611;BME280;35515;48.766;9.176;2023-06-01T07:22:46;98497.19;;;17.55;49.92
49611;BME280;35515;48.766;9.176;2023-06-01T07:25:13;98496.63;;;17.53;50.07
49611;BME280;35515;48.766;9.176;2023-06-01T07:27:41;98487.88;;;17.57;50.17
49611;BME280;35515;48.766;9.176;2023-06-01T07:30:09;98491.28;;;17.64;50.22
49611;BME280;35515;48.766;9.176;2023-06-01T07:32:37;98490.03;;;17.71;49.85
49611;BME280;35515;48.766;9.176;2023-06-01T07:35:04;98493.94;;;17.93;48.84
49611;BME280;35515;48.766;9.176;2023-06-01T07:37:31;98489.00;;;17.95;49.56
49611;BME280;35515;48.766;9.176;2023-06-01T07:39:58;98493.50;;;18.01;48.94
49611;BME280;35515;48.766;9.176;2023-06-01T07:42:24;98494.63;;;18.05;49.37
49611;BME280;35515;48.766;9.176;2023-06-01T07:44:52;98495.19;;;18.07;49.18
49611;BME280;35515;48.766;9.176;2023-06-01T07:47:19;98497.75;;;18.14;49.28
49611;BME280;35515;48.766;9.176;2023-06-01T07:49:46;98499.03;;;18.28;48.79
49611;BME280;35515;48.766;9.176;2023-06-01T07:52:13;98496.63;;;18.32;48.75
49611;BME280;35515;48.766;9.176;2023-06-01T07:54:39;98490.25;;;18.26;48.69
49611;BME280;35515;48.766;9.176;2023-06-01T07:57:06;98495.41;;;18.23;48.96
49611;BME280;35515;48.766;9.176;2023-06-01T07:59:33;98492.34;;;18.41;49.13
49611;BME280;35515;48.766;9.176;2023-06-01T08:02:01;98487.38;;;18.38;48.90
49611;BME280;35515;48.766;9.176;2023-06-01T08:04:28;98486.72;;;18.53;48.67
49611;BME280;35515;48.766;9.176;2023-06-01T08:06:58;98487.31;;;18.60;48.26
49611;BME280;35515;48.766;9.176;2023-06-01T08:09:28;98487.25;;;18.55;48.56
49611;BME280;35515;48.766;9.176;2023-06-01T08:11:55;98479.41;;;18.64;48.52
49611;BME280;35515;48.766;9.176;2023-06-01T08:14:21;98488.50;;;18.69;48.37
49611;BME280;35515;48.766;9.176;2023-06-01T08:16:48;98481.06;;;18.65;48.38
49611;BME280;35515;48.766;9.176;2023-06-01T08:19:17;98481.69;;;18.72;48.46
49611;BME280;35515;48.766;9.176;2023-06-01T08:21:44;98489.06;;;18.94;47.43
49611;BME280;35515;48.766;9.176;2023-06-01T08:24:10;98482.16;;;19.18;46.47
49611;BME280;35515;48.766;9.176;2023-06-01T08:26:38;98480.88;;;18.99;46.57
49611;BME280;35515;48.766;9.176;2023-06-01T08:29:04;98477.00;;;18.95;47.15
49611;BME280;35515;48.766;9.176;2023-06-01T08:31:31;98475.00;;;19.17;46.44
49611;BME280;35515;48.766;9.176;2023-06-01T08:33:57;98473.63;;;19.20;46.20
49611;BME280;35515;48.766;9.176;2023-06-01T08:36:25;98467.06;;;19.21;46.20
49611;BME280;35515;48.766;9.176;2023-06-01T08:38:54;98465.72;;;19.24;45.63
49611;BME280;35515;48.766;9.176;2023-06-01T08:41:25;98449.78;;;19.26;45.95
49611;BME280;35515;48.766;9.176;2023-06-01T08:43:54;98469.91;;;19.36;46.36
49611;BME280;35515;48.766;9.176;2023-06-01T08:46:21;98457.34;;;19.46;45.91
49611;BME280;35515;48.766;9.176;2023-06-01T08:48:50;98463.44;;;19.53;45.86
49611;BME280;35515;48.766;9.176;2023-06-01T08:51:19;98468.09;;;19.47;45.78
49611;BME280;35515;48.766;9.176;2023-06-01T08:53:49;98462.59;;;19.52;46.06
49611;BME280;35515;48.766;9.176;2023-06-01T08:56:16;98467.31;;;19.57;46.09
49611;BME280;35515;48.766;9.176;2023-06-01T08:58:43;98459.19;;;19.78;45.42
49611;BME280;35515;48.766;9.176;2023-06-01T09:01:12;98450.41;;;19.76;45.73
49611;BME280;35515;48.766;9.176;2023-06-01T09:03:43;98457.00;;;19.80;45.72
49611;BME280;35515;48.766;9.176;2023-06-01T09:06:10;98451.88;;;19.94;45.07
49611;BME280;35515;48.766;9.176;2023-06-01T09:08:37;98458.50;;;19.93;45.14
49611;BME280;35515;48.766;9.176;2023-06-01T09:11:04;98455.25;;;20.06;44.74
49611;BME280;35515;48.766;9.176;2023-06-01T09:13:32;98452.75;;;19.99;44.80
49611;BME280;35515;48.766;9.176;2023-06-01T09:15:59;98456.63;;;20.14;44.44
49611;BME280;35515;48.766;9.176;2023-06-01T09:18:25;98455.31;;;20.27;44.06
49611;BME280;35515;48.766;9.176;2023-06-01T09:20:52;98457.25;;;20.26;44.06
49611;BME280;35515;48.766;9.176;2023-06-01T09:23:26;98454.50;;;20.26;44.16
49611;BME280;35515;48.766;9.176;2023-06-01T09:26:07;98458.63;;;20.34;43.98
49611;BME280;35515;48.766;9.176;2023-06-01T09:28:54;98455.66;;;20.41;43.87
49611;BME280;35515;48.766;9.176;2023-06-01T09:31:38;98458.72;;;20.60;43.56
49611;BME280;35515;48.766;9.176;2023-06-01T09:34:06;98446.59;;;20.55;43.67
49611;BME280;35515;48.766;9.176;2023-06-01T09:36:33;98457.59;;;20.50;43.61
49611;BME280;35515;48.766;9.176;2023-06-01T09:39:02;98446.03;;;20.53;44.16
49611;BME280;35515;48.766;9.176;2023-06-01T09:41:46;98448.59;;;20.70;43.96
49611;BME280;35515;48.766;9.176;2023-06-01T09:44:14;98448.59;;;20.70;43.80
49611;BME280;35515;48.766;9.176;2023-06-01T09:46:47;98444.72;;;20.82;43.42
49611;BME280;35515;48.766;9.176;2023-06-01T09:49:18;98444.72;;;20.82;43.79
49611;BME280;35515;48.766;9.176;2023-06-01T09:51:47;98443.09;;;20.81;43.98
49611;BME280;35515;48.766;9.176;2023-06-01T09:54:25;98432.91;;;20.92;43.34
49611;BME280;35515;48.766;9.176;2023-06-01T09:56:54;98419.97;;;20.97;43.79
49611;BME280;35515;48.766;9.176;2023-06-01T09:59:24;98430.97;;;20.97;43.44
49611;BME280;35515;48.766;9.176;2023-06-01T10:01:52;98424.63;;;21.07;43.99
49611;BME280;35515;48.766;9.176;2023-06-01T10:04:26;98435.66;;;21.28;43.11
49611;BME280;35515;48.766;9.176;2023-06-01T10:06:57;98424.63;;;21.59;42.20
49611;BME280;35515;48.766;9.176;2023-06-01T10:09:25;98428.44;;;21.52;42.47
49611;BME280;35515;48.766;9.176;2023-06-01T10:11:54;98426.31;;;21.29;43.00
49611;BME280;35515;48.766;9.176;2023-06-01T10:14:22;98417.19;;;21.38;43.06
49611;BME280;35515;48.766;9.176;2023-06-01T10:16:50;98415.81;;;21.41;43.32
49611;BME280;35515;48.766;9.176;2023-06-01T10:19:18;98411.38;;;21.61;42.66
49611;BME280;35515;48.766;9.176;2023-06-01T10:21:45;98411.13;;;21.57;42.72
49611;BME280;35515;48.766;9.176;2023-06-01T10:24:12;98410.53;;;21.60;42.23
49611;BME280;35515;48.766;9.176;2023-06-01T10:26:45;98401.66;;;21.79;42.18
49611;BME280;35515;48.766;9.176;2023-06-01T10:29:18;98414.31;;;21.90;41.64
49611;BME280;35515;48.766;9.176;2023-06-01T10:31:45;98403.34;;;21.75;41.87
49611;BME280;35515;48.766;9.176;2023-06-01T10:34:12;98409.63;;;21.91;41.36
49611;BME280;35515;48.766;9.176;2023-06-01T10:37:10;98403.00;;;21.92;40.71
49611;BME280;35515;48.766;9.176;2023-06-01T10:39:37;98396.34;;;21.98;38.70
49611;BME280;35515;48.766;9.176;2023-06-01T10:42:38;98394.75;;;21.86;39.40
49611;BME280;35515;48.766;9.176;2023-06-01T10:45:39;98393.03;;;22.01;39.73
49611;BME280;35515;48.766;9.176;2023-06-01T10:48:07;98392.94;;;22.21;39.60
49611;BME280;35515;48.766;9.176;2023-06-01T10:50:35;98379.06;;;22.32;38.85
49611;BME280;35515;48.766;9.176;2023-06-01T10:53:24;98380.19;;;22.36;38.69
49611;BME280;35515;48.766;9.176;2023-06-01T10:56:20;98377.44;;;22.36;38.91
49611;BME280;35515;48.766;9.176;2023-06-01T10:59:09;98377.94;;;22.43;38.51
49611;BME280;35515;48.766;9.176;2023-06-01T11:01:38;98380.91;;;22.52;38.05
49611;BME280;35515;48.766;9.176;2023-06-01T11:04:07;98380.53;;;22.69;38.03
49611;BME280;35515;48.766;9.176;2023-06-01T11:06:34;98374.75;;;22.65;38.30
49611;BME280;35515;48.766;9.176;2023-06-01T11:09:03;98375.63;;;22.61;37.87
49611;BME280;35515;48.766;9.176;2023-06-01T11:11:56;98374.34;;;22.82;37.55
49611;BME280;35515;48.766;9.176;2023-06-01T11:14:24;98364.00;;;22.64;38.34
49611;BME280;35515;48.766;9.176;2023-06-01T11:16:53;98369.91;;;22.81;38.31
49611;BME280;35515;48.766;9.176;2023-06-01T11:19:21;98360.41;;;22.63;38.10
49611;BME280;35515;48.766;9.176;2023-06-01T11:21:55;98359.41;;;22.49;38.77
49611;BME280;35515;48.766;9.176;2023-06-01T11:24:31;98358.31;;;22.50;38.94
49611;BME280;35515;48.766;9.176;2023-06-01T11:26:59;98358.72;;;22.67;38.61
49611;BME280;35515;48.766;9.176;2023-06-01T11:29:26;98362.88;;;22.99;37.95
49611;BME280;35515;48.766;9.176;2023-06-01T11:31:56;98361.47;;;23.02;37.84
49611;BME280;35515;48.766;9.176;2023-06-01T11:34:31;98362.63;;;22.96;37.66
49611;BME280;35515;48.766;9.176;2023-06-01T11:36:58;98351.53;;;23.01;37.28
49611;BME280;35515;48.766;9.176;2023-06-01T11:39:26;98348.13;;;23.14;36.87
49611;BME280;35515;48.766;9.176;2023-06-01T11:42:04;98352.59;;;23.05;36.88
49611;BME280;35515;48.766;9.176;2023-06-01T11:44:35;98346.00;;;23.01;37.20
49611;BME280;35515;48.766;9.176;2023-06-01T11:47:06;98351.28;;;22.97;37.47
49611;BME280;35515;48.766;9.176;2023-06-01T11:49:40;98341.66;;;22.90;36.75
49611;BME280;35515;48.766;9.176;2023-06-01T11:52:09;98340.59;;;22.85;36.66
49611;BME280;35515;48.766;9.176;2023-06-01T11:54:35;98343.59;;;22.94;37.02
49611;BME280;35515;48.766;9.176;2023-06-01T11:57:03;98330.28;;;22.96;36.98
49611;BME280;35515;48.766;9.176;2023-06-01T11:59:36;98326.00;;;23.14;36.55
49611;BME280;35515;48.766;9.176;2023-06-01T12:02:16;98326.03;;;23.09;36.59
49611;BME280;35515;48.766;9.176;2023-06-01T12:04:53;98329.44;;;23.30;36.46
49611;BME280;35515;48.766;9.176;2023-06-01T12:07:20;98331.91;;;23.32;36.41
49611;BME280;35515;48.766;9.176;2023-06-01T12:09:47;98328.69;;;23.25;36.17
49611;BME280;35515;48.766;9.176;2023-06-01T12:12:13;98324.72;;;23.31;36.68
49611;BME280;35515;48.766;9.176;2023-06-01T12:14:43;98319.88;;;23.17;36.19
49611;BME280;35515;48.766;9.176;2023-06-01T12:17:11;98314.59;;;23.21;35.89
49611;BME280;35515;48.766;9.176;2023-06-01T12:19:44;98316.63;;;23.10;35.41
49611;BME280;35515;48.766;9.176;2023-06-01T12:22:11;98315.22;;;23.18;35.49
49611;BME280;35515;48.766;9.176;2023-06-01T12:24:37;98306.28;;;23.26;34.55
49611;BME280;35515;48.766;9.176;2023-06-01T12:27:12;98302.16;;;23.24;35.24
49611;BME280;35515;48.766;9.176;2023-06-01T12:29:41;98309.38;;;23.44;34.15
49611;BME280;35515;48.766;9.176;2023-06-01T12:32:09;98301.84;;;23.49;33.49
49611;BME280;35515;48.766;9.176;2023-06-01T12:34:38;98299.50;;;23.37;32.74
49611;BME280;35515;48.766;9.176;2023-06-01T12:37:16;98295.63;;;23.38;33.10
49611;BME280;35515;48.766;9.176;2023-06-01T12:39:43;98297.94;;;23.31;33.57
49611;BME280;35515;48.766;9.176;2023-06-01T12:42:09;98288.28;;;23.29;34.09
49611;BME280;35515;48.766;9.176;2023-06-01T12:44:37;98283.81;;;23.33;34.51
49611;BME280;35515;48.766;9.176;2023-06-01T12:47:05;98275.91;;;23.45;35.01
49611;BME280;35515;48.766;9.176;2023-06-01T12:49:32;98275.09;;;23.45;35.23
49611;BME280;35515;48.766;9.176;2023-06-01T12:52:01;98281.97;;;23.47;34.81
49611;BME280;35515;48.766;9.176;2023-06-01T12:54:28;98279.97;;;23.53;34.19
49611;BME280;35515;48.766;9.176;2023-06-01T12:56:54;98271.56;;;23.63;34.07
49611;BME280;35515;48.766;9.176;2023-06-01T12:59:21;98269.59;;;23.83;33.91
49611;BME280;35515;48.766;9.176;2023-06-01T13:01:48;98272.56;;;23.92;33.25
49611;BME280;35515;48.766;9.176;2023-06-01T13:04:15;98274.09;;;23.79;33.61
49611;BME280;35515;48.766;9.176;2023-06-01T13:06:41;98278.91;;;23.92;32.50
49611;BME280;35515;48.766;9.176;2023-06-01T13:09:11;98277.16;;;23.77;32.66